sensor_id;sensor_type;location;lat;lon;timestamp;P1;durP1;ratioP1;P2;durP2;ratioP2
13441;SDS011;6793;55.662;13.114;2024-02-21T00:02:23;0.10;;;0.10;;
13441;SDS011;6793;55.662;13.114;2024-02-21T00:04:49;0.10;;;0.10;;
13441;SDS011;6793;55.662;13.114;2024-02-21T00:07:16;0.10;;;0.10;;
13441;SDS011;6793;55.662;13.114;2024-02-21T00:09:43;0.10;;;0.10;;
13441;SDS011;6793;55.662;13.114;2024-02-21T00:12:10;0.10;;;0.10;;
13441;SDS011;6793;55.662;13.114;2024-02-21T00:14:40;0.00;;;0.00;;
13441;SDS011;6793;55.662;13.114;2024-02-21T00:17:07;0.10;;;0.10;;
13441;SDS011;6793;55.662;13.114;2024-02-21T00:19:34;0.10;;;0.10;;
13441;SDS011;6793;55.662;13.114;2024-02-21T00:22:01;0.10;;;0.10;;
13441;SDS011;6793;55.662;13.114;2024-02-21T00:24:28;0.10;;;0.10;;
13441;SDS011;6793;55.662;13.114;2024-02-21T00:26:55;0.10;;;0.10;;
13441;SDS011;6793;55.662;13.114;2024-02-21T00:29:22;0.10;;;0.10;;
13441;SDS011;6793;55.662;13.114;2024-02-21T00:31:51;0.10;;;0.10;;
13441;SDS011;6793;55.662;13.114;2024-02-21T00:34:18;0.10;;;0.10;;
13441;SDS011;6793;55.662;13.114;2024-02-21T00:36:45;0.10;;;0.10;;
13441;SDS011;6793;55.662;13.114;2024-02-21T00:39:12;0.10;;;0.10;;
13441;SDS011;6793;55.662;13.114;2024-02-21T00:41:39;0.15;;;0.15;;
13441;SDS011;6793;55.662;13.114;2024-02-21T00:44:06;0.10;;;0.10;;
13441;SDS011;6793;55.662;13.114;2024-02-21T00:46:34;0.10;;;0.10;;
13441;SDS011;6793;55.662;13.114;2024-02-21T00:49:05;0.17;;;0.17;;
13441;SDS011;6793;55.662;13.114;2024-02-21T00:51:32;0.20;;;0.20;;
13441;SDS011;6793;55.662;13.114;2024-02-21T00:53:59;0.10;;;0.10;;
13441;SDS011;6793;55.662;13.114;2024-02-21T00:56:26;0.10;;;0.10;;
13441;SDS011;6793;55.662;13.114;2024-02-21T00:58:54;0.15;;;0.15;;
13441;SDS011;6793;55.662;13.114;2024-02-21T01:01:24;0.10;;;0.10;;
13441;SDS011;6793;55.662;13.114;2024-02-21T01:03:51;0.10;;;0.10;;
13441;SDS011;6793;55.662;13.114;2024-02-21T01:06:20;0.17;;;0.17;;
13441;SDS011;6793;55.662;13.114;2024-02-21T01:08:48;0.10;;;0.10;;
13441;SDS011;6793;55.662;13.114;2024-02-21T01:11:15;0.10;;;0.10;;
13441;SDS011;6793;55.662;13.114;2024-02-21T01:13:42;0.10;;;0.10;;
13441;SDS011;6793;55.662;13.114;2024-02-21T01:16:09;0.10;;;0.10;;
13441;SDS011;6793;55.662;13.114;2024-02-21T01:18:39;0.17;;;0.17;;
13441;SDS011;6793;55.662;13.114;2024-02-21T01:21:06;0.10;;;0.10;;
13441;SDS011;6793;55.662;13.114;2024-02-21T01:23:36;0.10;;;0.10;;
13441;SDS011;6793;55.662;13.114;2024-02-21T01:26:03;0.10;;;0.10;;
13441;SDS011;6793;55.662;13.114;2024-02-21T01:28:33;0.10;;;0.10;;
13441;SDS011;6793;55.662;13.114;2024-02-21T01:31:00;0.10;;;0.10;;
13441;SDS011;6793;55.662;13.114;2024-02-21T01:33:28;0.10;;;0.10;;
13441;SDS011;6793;55.662;13.114;2024-02-21T01:35:59;0.10;;;0.10;;
13441;SDS011;6793;55.662;13.114;2024-02-21T01:38:27;0.10;;;0.10;;
13441;SDS011;6793;55.662;13.114;2024-02-21T01:40:55;0.10;;;0.10;;
13441;SDS011;6793;55.662;13.114;2024-02-21T01:43:23;0.10;;;0.10;;
13441;SDS011;6793;55.662;13.114;2024-02-21T01:45:50;0.10;;;0.10;;
13441;SDS011;6793;55.662;13.114;2024-02-21T01:48:19;0.10;;;0.10;;
13441;SDS011;6793;55.662;13.114;2024-02-21T01:50:46;0.10;;;0.10;;
13441;SDS011;6793;55.662;13.114;2024-02-21T01:53:13;0.10;;;0.10;;
13441;SDS011;6793;55.662;13.114;2024-02-21T01:55:43;0.10;;;0.10;;
13441;SDS011;6793;55.662;13.114;2024-02-21T01:58:12;0.10;;;0.10;;
13441;SDS011;6793;55.662;13.114;2024-02-21T02:00:40;0.10;;;0.10;;
13441;SDS011;6793;55.662;13.114;2024-02-21T02:03:08;0.10;;;0.10;;
13441;SDS011;6793;55.662;13.114;2024-02-21T02:05:41;0.10;;;0.10;;
13441;SDS011;6793;55.662;13.114;2024-02-21T02:08:08;0.05;;;0.05;;
13441;SDS011;6793;55.662;13.114;2024-02-21T02:10:35;0.10;;;0.10;;
13441;SDS011;6793;55.662;13.114;2024-02-21T02:13:03;0.10;;;0.10;;
13441;SDS011;6793;55.662;13.114;2024-02-21T02:15:38;0.10;;;0.10;;
13441;SDS011;6793;55.662;13.114;2024-02-21T02:18:05;0.10;;;0.10;;
13441;SDS011;6793;55.662;13.114;2024-02-21T02:20:32;0.10;;;0.10;;
13441;SDS011;6793;55.662;13.114;2024-02-21T02:23:00;0.10;;;0.10;;
13441;SDS011;6793;55.662;13.114;2024-02-21T02:25:32;0.10;;;0.10;;
13441;SDS011;6793;55.662;13.114;2024-02-21T02:27:59;0.10;;;0.10;;
13441;SDS011;6793;55.662;13.114;2024-02-21T02:30:26;0.10;;;0.10;;
13441;SDS011;6793;55.662;13.114;2024-02-21T02:32:53;0.10;;;0.10;;
13441;SDS011;6793;55.662;13.114;2024-02-21T02:35:20;0.10;;;0.10;;
13441;SDS011;6793;55.662;13.114;2024-02-21T02:37:48;0.10;;;0.10;;
13441;SDS011;6793;55.662;13.114;2024-02-21T02:40:15;0.10;;;0.10;;
13441;SDS011;6793;55.662;13.114;2024-02-21T02:42:44;0.10;;;0.10;;
13441;SDS011;6793;55.662;13.114;2024-02-21T02:45:12;0.10;;;0.10;;
13441;SDS011;6793;55.662;13.114;2024-02-21T02:47:39;0.10;;;0.10;;
13441;SDS011;6793;55.662;13.114;2024-02-21T02:50:07;0.10;;;0.10;;
13441;SDS011;6793;55.662;13.114;2024-02-21T02:52:34;0.10;;;0.10;;
13441;SDS011;6793;55.662;13.114;2024-02-21T02:55:01;0.10;;;0.10;;
13441;SDS011;6793;55.662;13.114;2024-02-21T02:57:28;0.10;;;0.10;;
13441;SDS011;6793;55.662;13.114;2024-02-21T02:59:56;0.10;;;0.10;;
13441;SDS011;6793;55.662;13.114;2024-02-21T03:02:23;0.10;;;0.10;;
13441;SDS011;6793;55.662;13.114;2024-02-21T03:04:50;0.10;;;0.10;;
13441;SDS011;6793;55.662;13.114;2024-02-21T03:07:18;0.10;;;0.10;;
13441;SDS011;6793;55.662;13.114;2024-02-21T03:09:45;0.10;;;0.10;;
13441;SDS011;6793;55.662;13.114;2024-02-21T03:12:12;0.00;;;0.00;;
13441;SDS011;6793;55.662;13.114;2024-02-21T03:14:44;0.10;;;0.10;;
13441;SDS011;6793;55.662;13.114;2024-02-21T03:17:12;0.10;;;0.10;;
13441;SDS011;6793;55.662;13.114;2024-02-21T03:19:39;0.00;;;0.00;;
13441;SDS011;6793;55.662;13.114;2024-02-21T03:22:06;0.00;;;0.00;;
13441;SDS011;6793;55.662;13.114;2024-02-21T03:24:33;0.10;;;0.10;;
13441;SDS011;6793;55.662;13.114;2024-02-21T03:27:00;0.10;;;0.10;;
13441;SDS011;6793;55.662;13.114;2024-02-21T03:29:27;0.10;;;0.10;;
13441;SDS011;6793;55.662;13.114;2024-02-21T03:31:54;0.10;;;0.10;;
13441;SDS011;6793;55.662;13.114;2024-02-21T03:34:23;0.10;;;0.10;;
13441;SDS011;6793;55.662;13.114;2024-02-21T03:36:50;0.00;;;0.00;;
13441;SDS011;6793;55.662;13.114;2024-02-21T03:39:17;0.03;;;0.03;;
13441;SDS011;6793;55.662;13.114;2024-02-21T03:41:44;0.10;;;0.10;;
13441;SDS011;6793;55.662;13.114;2024-02-21T03:44:11;0.00;;;0.00;;
13441;SDS011;6793;55.662;13.114;2024-02-21T03:46:39;0.10;;;0.10;;
13441;SDS011;6793;55.662;13.114;2024-02-21T03:49:06;0.00;;;0.00;;
13441;SDS011;6793;55.662;13.114;2024-02-21T03:51:34;0.10;;;0.10;;
13441;SDS011;6793;55.662;13.114;2024-02-21T03:54:01;0.00;;;0.00;;
13441;SDS011;6793;55.662;13.114;2024-02-21T03:56:28;0.03;;;0.03;;
13441;SDS011;6793;55.662;13.114;2024-02-21T03:58:55;0.00;;;0.00;;
13441;SDS011;6793;55.662;13.114;2024-02-21T04:01:23;0.00;;;0.00;;
13441;SDS011;6793;55.662;13.114;2024-02-21T04:03:50;0.00;;;0.00;;
13441;SDS011;6793;55.662;13.114;2024-02-21T04:06:17;0.00;;;0.00;;
13441;SDS011;6793;55.662;13.114;2024-02-21T04:08:46;0.00;;;0.00;;
13441;SDS011;6793;55.662;13.114;2024-02-21T04:11:13;0.00;;;0.00;;
13441;SDS011;6793;55.662;13.114;2024-02-21T04:13:40;0.00;;;0.00;;
13441;SDS011;6793;55.662;13.114;2024-02-21T04:16:07;0.10;;;0.10;;
13441;SDS011;6793;55.662;13.114;2024-02-21T04:18:34;0.10;;;0.10;;
13441;SDS011;6793;55.662;13.114;2024-02-21T04:21:01;0.10;;;0.10;;
13441;SDS011;6793;55.662;13.114;2024-02-21T04:23:28;0.00;;;0.00;;
13441;SDS011;6793;55.662;13.114;2024-02-21T04:25:57;0.00;;;0.00;;
13441;SDS011;6793;55.662;13.114;2024-02-21T04:28:24;0.10;;;0.10;;
13441;SDS011;6793;55.662;13.114;2024-02-21T04:30:51;0.00;;;0.00;;
13441;SDS011;6793;55.662;13.114;2024-02-21T04:33:18;0.00;;;0.00;;
13441;SDS011;6793;55.662;13.114;2024-02-21T04:35:45;0.00;;;0.00;;
13441;SDS011;6793;55.662;13.114;2024-02-21T04:38:13;0.00;;;0.00;;
13441;SDS011;6793;55.662;13.114;2024-02-21T04:40:40;0.10;;;0.10;;
13441;SDS011;6793;55.662;13.114;2024-02-21T04:43:08;0.00;;;0.00;;
13441;SDS011;6793;55.662;13.114;2024-02-21T04:45:35;0.00;;;0.00;;
13441;SDS011;6793;55.662;13.114;2024-02-21T04:48:03;0.00;;;0.00;;
13441;SDS011;6793;55.662;13.114;2024-02-21T04:50:30;0.00;;;0.00;;
13441;SDS011;6793;55.662;13.114;2024-02-21T04:52:57;0.00;;;0.00;;
13441;SDS011;6793;55.662;13.114;2024-02-21T04:55:24;0.00;;;0.00;;
13441;SDS011;6793;55.662;13.114;2024-02-21T04:57:51;0.00;;;0.00;;
13441;SDS011;6793;55.662;13.114;2024-02-21T05:00:20;0.00;;;0.00;;
13441;SDS011;6793;55.662;13.114;2024-02-21T05:02:47;0.00;;;0.00;;
13441;SDS011;6793;55.662;13.114;2024-02-21T05:05:15;0.00;;;0.00;;
13441;SDS011;6793;55.662;13.114;2024-02-21T05:07:42;0.00;;;0.00;;
13441;SDS011;6793;55.662;13.114;2024-02-21T05:10:09;0.00;;;0.00;;
13441;SDS011;6793;55.662;13.114;2024-02-21T05:12:36;0.00;;;0.00;;
13441;SDS011;6793;55.662;13.114;2024-02-21T05:15:03;0.00;;;0.00;;
13441;SDS011;6793;55.662;13.114;2024-02-21T05:17:32;0.00;;;0.00;;
13441;SDS011;6793;55.662;13.114;2024-02-21T05:19:59;0.00;;;0.00;;
13441;SDS011;6793;55.662;13.114;2024-02-21T05:22:26;0.00;;;0.00;;
13441;SDS011;6793;55.662;13.114;2024-02-21T05:24:53;0.00;;;0.00;;
13441;SDS011;6793;55.662;13.114;2024-02-21T05:27:23;0.00;;;0.00;;
13441;SDS011;6793;55.662;13.114;2024-02-21T05:29:50;0.00;;;0.00;;
13441;SDS011;6793;55.662;13.114;2024-02-21T05:32:17;0.00;;;0.00;;
13441;SDS011;6793;55.662;13.114;2024-02-21T05:34:48;0.00;;;0.00;;
13441;SDS011;6793;55.662;13.114;2024-02-21T05:37:15;0.00;;;0.00;;
13441;SDS011;6793;55.662;13.114;2024-02-21T05:39:42;0.00;;;0.00;;
13441;SDS011;6793;55.662;13.114;2024-02-21T05:42:09;0.00;;;0.00;;
13441;SDS011;6793;55.662;13.114;2024-02-21T05:44:36;0.00;;;0.00;;
13441;SDS011;6793;55.662;13.114;2024-02-21T05:47:03;0.00;;;0.00;;
13441;SDS011;6793;55.662;13.114;2024-02-21T05:49:34;0.00;;;0.00;;
13441;SDS011;6793;55.662;13.114;2024-02-21T05:52:03;0.03;;;0.03;;
13441;SDS011;6793;55.662;13.114;2024-02-21T05:54:31;0.00;;;0.00;;
13441;SDS011;6793;55.662;13.114;2024-02-21T05:56:58;0.00;;;0.00;;
13441;SDS011;6793;55.662;13.114;2024-02-21T05:59:25;0.00;;;0.00;;
13441;SDS011;6793;55.662;13.114;2024-02-21T06:01:55;0.00;;;0.00;;
13441;SDS011;6793;55.662;13.114;2024-02-21T06:04:23;0.00;;;0.00;;
13441;SDS011;6793;55.662;13.114;2024-02-21T06:06:50;0.10;;;0.10;;
13441;SDS011;6793;55.662;13.114;2024-02-21T06:09:19;0.10;;;0.10;;
13441;SDS011;6793;55.662;13.114;2024-02-21T06:11:46;0.00;;;0.00;;
13441;SDS011;6793;55.662;13.114;2024-02-21T06:14:14;0.00;;;0.00;;
13441;SDS011;6793;55.662;13.114;2024-02-21T06:16:41;0.00;;;0.00;;
13441;SDS011;6793;55.662;13.114;2024-02-21T06:19:08;0.00;;;0.00;;
13441;SDS011;6793;55.662;13.114;2024-02-21T06:21:35;0.00;;;0.00;;
13441;SDS011;6793;55.662;13.114;2024-02-21T06:24:02;0.05;;;0.05;;
13441;SDS011;6793;55.662;13.114;2024-02-21T06:26:31;0.10;;;0.10;;
13441;SDS011;6793;55.662;13.114;2024-02-21T06:28:58;0.10;;;0.10;;
13441;SDS011;6793;55.662;13.114;2024-02-21T06:31:26;0.00;;;0.00;;
13441;SDS011;6793;55.662;13.114;2024-02-21T06:33:53;0.10;;;0.10;;
13441;SDS011;6793;55.662;13.114;2024-02-21T06:36:21;0.00;;;0.00;;
13441;SDS011;6793;55.662;13.114;2024-02-21T06:38:48;0.10;;;0.10;;
13441;SDS011;6793;55.662;13.114;2024-02-21T06:41:15;0.00;;;0.00;;
13441;SDS011;6793;55.662;13.114;2024-02-21T06:43:45;0.10;;;0.10;;
13441;SDS011;6793;55.662;13.114;2024-02-21T06:46:12;0.10;;;0.10;;
13441;SDS011;6793;55.662;13.114;2024-02-21T06:48:39;0.00;;;0.00;;
13441;SDS011;6793;55.662;13.114;2024-02-21T06:51:06;0.10;;;0.10;;
13441;SDS011;6793;55.662;13.114;2024-02-21T06:53:33;0.00;;;0.00;;
13441;SDS011;6793;55.662;13.114;2024-02-21T06:56:00;0.00;;;0.00;;
13441;SDS011;6793;55.662;13.114;2024-02-21T06:58:27;0.03;;;0.03;;
13441;SDS011;6793;55.662;13.114;2024-02-21T07:00:56;0.10;;;0.10;;
13441;SDS011;6793;55.662;13.114;2024-02-21T07:03:23;0.10;;;0.10;;
13441;SDS011;6793;55.662;13.114;2024-02-21T07:05:50;0.00;;;0.00;;
13441;SDS011;6793;55.662;13.114;2024-02-21T07:08:17;0.00;;;0.00;;
13441;SDS011;6793;55.662;13.114;2024-02-21T07:10:44;0.00;;;0.00;;
13441;SDS011;6793;55.662;13.114;2024-02-21T07:13:11;0.00;;;0.00;;
13441;SDS011;6793;55.662;13.114;2024-02-21T07:15:40;0.00;;;0.00;;
13441;SDS011;6793;55.662;13.114;2024-02-21T07:18:08;0.00;;;0.00;;
13441;SDS011;6793;55.662;13.114;2024-02-21T07:20:38;0.00;;;0.00;;
13441;SDS011;6793;55.662;13.114;2024-02-21T07:23:06;0.00;;;0.00;;
13441;SDS011;6793;55.662;13.114;2024-02-21T07:25:33;0.00;;;0.00;;
13441;SDS011;6793;55.662;13.114;2024-02-21T07:28:00;0.00;;;0.00;;
13441;SDS011;6793;55.662;13.114;2024-02-21T07:30:28;0.10;;;0.10;;
13441;SDS011;6793;55.662;13.114;2024-02-21T07:32:55;0.00;;;0.00;;
13441;SDS011;6793;55.662;13.114;2024-02-21T07:35:23;0.00;;;0.00;;
13441;SDS011;6793;55.662;13.114;2024-02-21T07:37:50;0.00;;;0.00;;
13441;SDS011;6793;55.662;13.114;2024-02-21T07:40:17;0.00;;;0.00;;
13441;SDS011;6793;55.662;13.114;2024-02-21T07:42:44;0.00;;;0.00;;
13441;SDS011;6793;55.662;13.114;2024-02-21T07:45:11;0.00;;;0.00;;
13441;SDS011;6793;55.662;13.114;2024-02-21T07:47:38;0.00;;;0.00;;
13441;SDS011;6793;55.662;13.114;2024-02-21T07:50:06;0.00;;;0.00;;
13441;SDS011;6793;55.662;13.114;2024-02-21T07:52:36;0.00;;;0.00;;
13441;SDS011;6793;55.662;13.114;2024-02-21T07:55:03;0.00;;;0.00;;
13441;SDS011;6793;55.662;13.114;2024-02-21T07:57:30;0.00;;;0.00;;
13441;SDS011;6793;55.662;13.114;2024-02-21T07:59:57;0.00;;;0.00;;
13441;SDS011;6793;55.662;13.114;2024-02-21T08:02:24;0.00;;;0.00;;
13441;SDS011;6793;55.662;13.114;2024-02-21T08:04:51;0.00;;;0.00;;
13441;SDS011;6793;55.662;13.114;2024-02-21T08:07:18;0.00;;;0.00;;
13441;SDS011;6793;55.662;13.114;2024-02-21T08:09:47;0.00;;;0.00;;
13441;SDS011;6793;55.662;13.114;2024-02-21T08:12:14;0.10;;;0.10;;
13441;SDS011;6793;55.662;13.114;2024-02-21T08:14:41;0.10;;;0.10;;
13441;SDS011;6793;55.662;13.114;2024-02-21T08:17:09;0.10;;;0.10;;
13441;SDS011;6793;55.662;13.114;2024-02-21T08:19:36;0.00;;;0.00;;
13441;SDS011;6793;55.662;13.114;2024-02-21T08:22:03;0.10;;;0.10;;
13441;SDS011;6793;55.662;13.114;2024-02-21T08:24:30;0.10;;;0.10;;
13441;SDS011;6793;55.662;13.114;2024-02-21T08:26:59;0.10;;;0.10;;
13441;SDS011;6793;55.662;13.114;2024-02-21T08:29:26;0.10;;;0.10;;
13441;SDS011;6793;55.662;13.114;2024-02-21T08:31:53;0.00;;;0.00;;
13441;SDS011;6793;55.662;13.114;2024-02-21T08:34:20;0.10;;;0.10;;
13441;SDS011;6793;55.662;13.114;2024-02-21T08:36:47;0.10;;;0.10;;
13441;SDS011;6793;55.662;13.114;2024-02-21T08:39:14;0.10;;;0.10;;
13441;SDS011;6793;55.662;13.114;2024-02-21T08:41:42;0.10;;;0.10;;
13441;SDS011;6793;55.662;13.114;2024-02-21T08:44:10;0.10;;;0.10;;
13441;SDS011;6793;55.662;13.114;2024-02-21T08:46:37;0.10;;;0.10;;
13441;SDS011;6793;55.662;13.114;2024-02-21T08:49:05;0.10;;;0.10;;
13441;SDS011;6793;55.662;13.114;2024-02-21T08:51:32;0.10;;;0.10;;
13441;SDS011;6793;55.662;13.114;2024-02-21T08:54:00;0.17;;;0.17;;
13441;SDS011;6793;55.662;13.114;2024-02-21T08:56:29;0.10;;;0.10;;
13441;SDS011;6793;55.662;13.114;2024-02-21T08:58:56;0.10;;;0.10;;
13441;SDS011;6793;55.662;13.114;2024-02-21T09:01:25;0.15;;;0.15;;
13441;SDS011;6793;55.662;13.114;2024-02-21T09:03:52;0.10;;;0.10;;
13441;SDS011;6793;55.662;13.114;2024-02-21T09:06:21;0.20;;;0.20;;
13441;SDS011;6793;55.662;13.114;2024-02-21T09:08:48;0.20;;;0.20;;
13441;SDS011;6793;55.662;13.114;2024-02-21T09:11:15;0.20;;;0.20;;
13441;SDS011;6793;55.662;13.114;2024-02-21T09:13:43;0.10;;;0.10;;
13441;SDS011;6793;55.662;13.114;2024-02-21T09:16:10;0.20;;;0.20;;
13441;SDS011;6793;55.662;13.114;2024-02-21T09:18:38;0.20;;;0.20;;
13441;SDS011;6793;55.662;13.114;2024-02-21T09:21:06;0.10;;;0.10;;
13441;SDS011;6793;55.662;13.114;2024-02-21T09:23:33;0.20;;;0.20;;
13441;SDS011;6793;55.662;13.114;2024-02-21T09:26:00;0.10;;;0.10;;
13441;SDS011;6793;55.662;13.114;2024-02-21T09:28:29;0.20;;;0.20;;
13441;SDS011;6793;55.662;13.114;2024-02-21T09:30:56;0.20;;;0.20;;
13441;SDS011;6793;55.662;13.114;2024-02-21T09:33:23;0.20;;;0.20;;
13441;SDS011;6793;55.662;13.114;2024-02-21T09:35:51;0.17;;;0.17;;
13441;SDS011;6793;55.662;13.114;2024-02-21T09:38:18;0.20;;;0.20;;
13441;SDS011;6793;55.662;13.114;2024-02-21T09:40:46;0.20;;;0.20;;
13441;SDS011;6793;55.662;13.114;2024-02-21T09:43:13;0.20;;;0.20;;
13441;SDS011;6793;55.662;13.114;2024-02-21T09:45:46;0.20;;;0.20;;
13441;SDS011;6793;55.662;13.114;2024-02-21T09:48:24;0.20;;;0.20;;
13441;SDS011;6793;55.662;13.114;2024-02-21T09:50:54;0.20;;;0.20;;
13441;SDS011;6793;55.662;13.114;2024-02-21T09:53:21;0.20;;;0.20;;
13441;SDS011;6793;55.662;13.114;2024-02-21T09:55:51;0.20;;;0.20;;
13441;SDS011;6793;55.662;13.114;2024-02-21T09:58:18;0.20;;;0.20;;
13441;SDS011;6793;55.662;13.114;2024-02-21T10:00:45;0.20;;;0.20;;
13441;SDS011;6793;55.662;13.114;2024-02-21T10:03:12;0.20;;;0.20;;
13441;SDS011;6793;55.662;13.114;2024-02-21T10:05:45;0.20;;;0.20;;
13441;SDS011;6793;55.662;13.114;2024-02-21T10:08:16;0.10;;;0.10;;
13441;SDS011;6793;55.662;13.114;2024-02-21T10:10:43;0.10;;;0.10;;
13441;SDS011;6793;55.662;13.114;2024-02-21T10:13:11;0.10;;;0.10;;
13441;SDS011;6793;55.662;13.114;2024-02-21T10:15:49;0.10;;;0.10;;
13441;SDS011;6793;55.662;13.114;2024-02-21T10:18:17;0.10;;;0.10;;
13441;SDS011;6793;55.662;13.114;2024-02-21T10:20:44;0.10;;;0.10;;
13441;SDS011;6793;55.662;13.114;2024-02-21T10:23:11;0.10;;;0.10;;
13441;SDS011;6793;55.662;13.114;2024-02-21T10:25:40;0.10;;;0.10;;
13441;SDS011;6793;55.662;13.114;2024-02-21T10:28:11;0.10;;;0.10;;
13441;SDS011;6793;55.662;13.114;2024-02-21T10:30:49;0.10;;;0.10;;
13441;SDS011;6793;55.662;13.114;2024-02-21T10:33:16;0.10;;;0.10;;
13441;SDS011;6793;55.662;13.114;2024-02-21T10:35:45;0.10;;;0.10;;
13441;SDS011;6793;55.662;13.114;2024-02-21T10:38:14;0.10;;;0.10;;
13441;SDS011;6793;55.662;13.114;2024-02-21T10:40:43;0.10;;;0.10;;
13441;SDS011;6793;55.662;13.114;2024-02-21T10:43:12;0.10;;;0.10;;
13441;SDS011;6793;55.662;13.114;2024-02-21T10:45:39;0.10;;;0.10;;
13441;SDS011;6793;55.662;13.114;2024-02-21T10:48:09;0.10;;;0.10;;
13441;SDS011;6793;55.662;13.114;2024-02-21T10:50:42;0.10;;;0.10;;
13441;SDS011;6793;55.662;13.114;2024-02-21T10:53:13;0.10;;;0.10;;
13441;SDS011;6793;55.662;13.114;2024-02-21T10:55:53;0.13;;;0.13;;
13441;SDS011;6793;55.662;13.114;2024-02-21T10:58:23;0.10;;;0.10;;
13441;SDS011;6793;55.662;13.114;2024-02-21T11:00:50;0.10;;;0.10;;
13441;SDS011;6793;55.662;13.114;2024-02-21T11:03:18;0.10;;;0.10;;
13441;SDS011;6793;55.662;13.114;2024-02-21T11:05:45;0.10;;;0.10;;
13441;SDS011;6793;55.662;13.114;2024-02-21T11:08:13;0.10;;;0.10;;
13441;SDS011;6793;55.662;13.114;2024-02-21T11:10:45;0.10;;;0.10;;
13441;SDS011;6793;55.662;13.114;2024-02-21T11:13:13;0.10;;;0.10;;
13441;SDS011;6793;55.662;13.114;2024-02-21T11:15:42;0.10;;;0.10;;
13441;SDS011;6793;55.662;13.114;2024-02-21T11:18:22;0.10;;;0.10;;
13441;SDS011;6793;55.662;13.114;2024-02-21T11:20:49;0.10;;;0.10;;
13441;SDS011;6793;55.662;13.114;2024-02-21T11:23:23;0.10;;;0.10;;
13441;SDS011;6793;55.662;13.114;2024-02-21T11:25:50;0.10;;;0.10;;
13441;SDS011;6793;55.662;13.114;2024-02-21T11:28:26;0.15;;;0.15;;
13441;SDS011;6793;55.662;13.114;2024-02-21T11:30:53;0.10;;;0.10;;
13441;SDS011;6793;55.662;13.114;2024-02-21T11:33:22;0.13;;;0.13;;
13441;SDS011;6793;55.662;13.114;2024-02-21T11:35:49;0.10;;;0.10;;
13441;SDS011;6793;55.662;13.114;2024-02-21T11:38:18;0.20;;;0.20;;
13441;SDS011;6793;55.662;13.114;2024-02-21T11:40:47;0.20;;;0.20;;
13441;SDS011;6793;55.662;13.114;2024-02-21T11:43:15;0.10;;;0.10;;
13441;SDS011;6793;55.662;13.114;2024-02-21T11:45:43;0.10;;;0.10;;
13441;SDS011;6793;55.662;13.114;2024-02-21T11:48:10;0.10;;;0.10;;
13441;SDS011;6793;55.662;13.114;2024-02-21T11:50:37;0.13;;;0.13;;
13441;SDS011;6793;55.662;13.114;2024-02-21T11:53:04;0.20;;;0.20;;
13441;SDS011;6793;55.662;13.114;2024-02-21T11:55:31;0.20;;;0.20;;
13441;SDS011;6793;55.662;13.114;2024-02-21T11:57:59;0.13;;;0.13;;
13441;SDS011;6793;55.662;13.114;2024-02-21T12:00:26;0.20;;;0.20;;
13441;SDS011;6793;55.662;13.114;2024-02-21T12:02:55;0.20;;;0.20;;
13441;SDS011;6793;55.662;13.114;2024-02-21T12:05:26;0.20;;;0.20;;
13441;SDS011;6793;55.662;13.114;2024-02-21T12:07:54;0.20;;;0.20;;
13441;SDS011;6793;55.662;13.114;2024-02-21T12:10:23;0.20;;;0.20;;
13441;SDS011;6793;55.662;13.114;2024-02-21T12:12:50;0.20;;;0.20;;
13441;SDS011;6793;55.662;13.114;2024-02-21T12:15:19;0.20;;;0.20;;
13441;SDS011;6793;55.662;13.114;2024-02-21T12:17:47;0.20;;;0.20;;
13441;SDS011;6793;55.662;13.114;2024-02-21T12:20:15;0.20;;;0.20;;
13441;SDS011;6793;55.662;13.114;2024-02-21T12:22:42;0.20;;;0.20;;
13441;SDS011;6793;55.662;13.114;2024-02-21T12:25:15;0.20;;;0.20;;
13441;SDS011;6793;55.662;13.114;2024-02-21T12:27:44;0.20;;;0.20;;
13441;SDS011;6793;55.662;13.114;2024-02-21T12:30:11;0.30;;;0.30;;
13441;SDS011;6793;55.662;13.114;2024-02-21T12:32:38;0.20;;;0.20;;
13441;SDS011;6793;55.662;13.114;2024-02-21T12:35:06;0.20;;;0.20;;
13441;SDS011;6793;55.662;13.114;2024-02-21T12:37:35;0.20;;;0.20;;
13441;SDS011;6793;55.662;13.114;2024-02-21T12:40:03;0.28;;;0.28;;
13441;SDS011;6793;55.662;13.114;2024-02-21T12:42:31;0.30;;;0.30;;
13441;SDS011;6793;55.662;13.114;2024-02-21T12:44:59;0.30;;;0.30;;
13441;SDS011;6793;55.662;13.114;2024-02-21T12:47:26;0.20;;;0.20;;
13441;SDS011;6793;55.662;13.114;2024-02-21T12:49:53;0.30;;;0.30;;
13441;SDS011;6793;55.662;13.114;2024-02-21T12:52:20;0.20;;;0.20;;
13441;SDS011;6793;55.662;13.114;2024-02-21T12:54:48;0.25;;;0.25;;
13441;SDS011;6793;55.662;13.114;2024-02-21T12:57:16;0.20;;;0.20;;
13441;SDS011;6793;55.662;13.114;2024-02-21T12:59:43;0.22;;;0.22;;
13441;SDS011;6793;55.662;13.114;2024-02-21T13:02:10;0.20;;;0.20;;
13441;SDS011;6793;55.662;13.114;2024-02-21T13:04:38;0.30;;;0.30;;
13441;SDS011;6793;55.662;13.114;2024-02-21T13:07:06;0.20;;;0.20;;
13441;SDS011;6793;55.662;13.114;2024-02-21T13:09:33;0.20;;;0.20;;
13441;SDS011;6793;55.662;13.114;2024-02-21T13:12:02;0.30;;;0.30;;
13441;SDS011;6793;55.662;13.114;2024-02-21T13:14:29;0.30;;;0.30;;
13441;SDS011;6793;55.662;13.114;2024-02-21T13:16:58;0.20;;;0.20;;
13441;SDS011;6793;55.662;13.114;2024-02-21T13:19:25;0.30;;;0.30;;
13441;SDS011;6793;55.662;13.114;2024-02-21T13:21:52;0.30;;;0.30;;
13441;SDS011;6793;55.662;13.114;2024-02-21T13:24:19;0.20;;;0.20;;
13441;SDS011;6793;55.662;13.114;2024-02-21T13:26:46;0.30;;;0.30;;
13441;SDS011;6793;55.662;13.114;2024-02-21T13:29:14;0.30;;;0.30;;
13441;SDS011;6793;55.662;13.114;2024-02-21T13:31:41;0.22;;;0.22;;
13441;SDS011;6793;55.662;13.114;2024-02-21T13:34:08;0.30;;;0.30;;
13441;SDS011;6793;55.662;13.114;2024-02-21T13:36:35;0.30;;;0.30;;
13441;SDS011;6793;55.662;13.114;2024-02-21T13:39:02;0.30;;;0.30;;
13441;SDS011;6793;55.662;13.114;2024-02-21T13:41:30;0.30;;;0.30;;
13441;SDS011;6793;55.662;13.114;2024-02-21T13:43:58;0.30;;;0.30;;
13441;SDS011;6793;55.662;13.114;2024-02-21T13:46:27;0.38;;;0.38;;
13441;SDS011;6793;55.662;13.114;2024-02-21T13:48:56;0.40;;;0.40;;
13441;SDS011;6793;55.662;13.114;2024-02-21T13:51:29;0.35;;;0.35;;
13441;SDS011;6793;55.662;13.114;2024-02-21T13:53:56;0.30;;;0.30;;
13441;SDS011;6793;55.662;13.114;2024-02-21T13:56:24;0.40;;;0.40;;
13441;SDS011;6793;55.662;13.114;2024-02-21T13:58:51;0.30;;;0.30;;
13441;SDS011;6793;55.662;13.114;2024-02-21T14:01:18;0.30;;;0.30;;
13441;SDS011;6793;55.662;13.114;2024-02-21T14:03:47;0.30;;;0.30;;
13441;SDS011;6793;55.662;13.114;2024-02-21T14:06:14;0.32;;;0.32;;
13441;SDS011;6793;55.662;13.114;2024-02-21T14:08:42;0.30;;;0.30;;
13441;SDS011;6793;55.662;13.114;2024-02-21T14:11:09;0.30;;;0.30;;
13441;SDS011;6793;55.662;13.114;2024-02-21T14:13:36;0.40;;;0.40;;
13441;SDS011;6793;55.662;13.114;2024-02-21T14:16:08;0.40;;;0.40;;
13441;SDS011;6793;55.662;13.114;2024-02-21T14:18:38;0.28;;;0.28;;
13441;SDS011;6793;55.662;13.114;2024-02-21T14:21:07;0.30;;;0.30;;
13441;SDS011;6793;55.662;13.114;2024-02-21T14:23:36;0.30;;;0.30;;
13441;SDS011;6793;55.662;13.114;2024-02-21T14:26:03;0.35;;;0.35;;
13441;SDS011;6793;55.662;13.114;2024-02-21T14:28:30;0.40;;;0.40;;
13441;SDS011;6793;55.662;13.114;2024-02-21T14:30:58;0.40;;;0.40;;
13441;SDS011;6793;55.662;13.114;2024-02-21T14:33:25;0.40;;;0.40;;
13441;SDS011;6793;55.662;13.114;2024-02-21T14:35:52;0.40;;;0.40;;
13441;SDS011;6793;55.662;13.114;2024-02-21T14:38:21;0.30;;;0.30;;
13441;SDS011;6793;55.662;13.114;2024-02-21T14:40:48;0.30;;;0.30;;
13441;SDS011;6793;55.662;13.114;2024-02-21T14:43:15;0.20;;;0.20;;
13441;SDS011;6793;55.662;13.114;2024-02-21T14:45:43;0.30;;;0.30;;
13441;SDS011;6793;55.662;13.114;2024-02-21T14:48:12;0.30;;;0.30;;
13441;SDS011;6793;55.662;13.114;2024-02-21T14:50:39;0.30;;;0.30;;
13441;SDS011;6793;55.662;13.114;2024-02-21T14:53:07;0.30;;;0.30;;